sensor_id;sensor_type;location;lat;lon;timestamp;pressure;altitude;pressure_sealevel;temperature;humidity
63819;BME280;49970;54.976;73.248;2023-02-11T00:01:35;101863.91;;;-20.66;76.61
63819;BME280;49970;54.976;73.248;2023-02-11T00:04:09;101877.53;;;-20.64;76.86
63819;BME280;49970;54.976;73.248;2023-02-11T00:06:40;101880.50;;;-20.57;76.60
63819;BME280;49970;54.976;73.248;2023-02-11T00:09:06;101876.22;;;-20.58;76.41
63819;BME280;49970;54.976;73.248;2023-02-11T00:11:33;101877.34;;;-20.55;76.86
63819;BME280;49970;54.976;73.248;2023-02-11T00:14:05;101881.22;;;-20.48;76.27
63819;BME280;49970;54.976;73.248;2023-02-11T00:16:38;101876.38;;;-20.45;76.36
63819;BME280;49970;54.976;73.248;2023-02-11T00:19:05;101878.50;;;-20.40;75.90
63819;BME280;49970;54.976;73.248;2023-02-11T00:21:32;101880.38;;;-20.37;76.05
63819;BME280;49970;54.976;73.248;2023-02-11T00:23:59;101892.56;;;-20.31;76.28
63819;BME280;49970;54.976;73.248;2023-02-11T00:26:30;101890.19;;;-20.30;76.05
63819;BME280;49970;54.976;73.248;2023-02-11T00:28:59;101885.59;;;-20.46;75.96
63819;BME280;49970;54.976;73.248;2023-02-11T00:31:27;101902.81;;;-20.40;76.16
63819;BME280;49970;54.976;73.248;2023-02-11T00:33:53;101905.13;;;-20.43;76.10
63819;BME280;49970;54.976;73.248;2023-02-11T00:36:30;101883.16;;;-20.56;76.43
63819;BME280;49970;54.976;73.248;2023-02-11T00:38:57;101894.56;;;-20.49;76.10
63819;BME280;49970;54.976;73.248;2023-02-11T00:41:24;101897.09;;;-20.49;76.26
63819;BME280;49970;54.976;73.248;2023-02-11T00:43:55;101894.31;;;-20.52;76.45
63819;BME280;49970;54.976;73.248;2023-02-11T00:46:22;101895.63;;;-20.57;76.63
63819;BME280;49970;54.976;73.248;2023-02-11T00:48:54;101905.56;;;-20.59;76.86
63819;BME280;49970;54.976;73.248;2023-02-11T00:51:26;101899.88;;;-20.56;75.95
63819;BME280;49970;54.976;73.248;2023-02-11T00:54:01;101902.78;;;-20.52;75.99
63819;BME280;49970;54.976;73.248;2023-02-11T00:56:28;101909.69;;;-20.49;75.95
63819;BME280;49970;54.976;73.248;2023-02-11T00:59:05;101910.00;;;-20.67;76.39
63819;BME280;49970;54.976;73.248;2023-02-11T01:01:42;101907.66;;;-20.85;75.65
63819;BME280;49970;54.976;73.248;2023-02-11T01:04:08;101910.19;;;-20.96;75.64
63819;BME280;49970;54.976;73.248;2023-02-11T01:06:34;101910.81;;;-20.98;75.88
63819;BME280;49970;54.976;73.248;2023-02-11T01:09:11;101909.69;;;-20.92;76.03
63819;BME280;49970;54.976;73.248;2023-02-11T01:11:37;101913.19;;;-20.79;75.96
63819;BME280;49970;54.976;73.248;2023-02-11T01:14:14;101911.53;;;-20.69;76.02
63819;BME280;49970;54.976;73.248;2023-02-11T01:16:45;101912.00;;;-20.63;76.25
63819;BME280;49970;54.976;73.248;2023-02-11T01:19:12;101895.81;;;-20.76;76.35
63819;BME280;49970;54.976;73.248;2023-02-11T01:21:38;101913.56;;;-20.75;75.95
63819;BME280;49970;54.976;73.248;2023-02-11T01:24:05;101916.84;;;-20.76;75.96
63819;BME280;49970;54.976;73.248;2023-02-11T01:26:31;101913.81;;;-20.72;76.14
63819;BME280;49970;54.976;73.248;2023-02-11T01:28:57;101916.56;;;-20.69;75.96
63819;BME280;49970;54.976;73.248;2023-02-11T01:31:29;101919.31;;;-20.66;75.68
63819;BME280;49970;54.976;73.248;2023-02-11T01:33:59;101924.34;;;-20.66;75.91
63819;BME280;49970;54.976;73.248;2023-02-11T01:36:26;101922.59;;;-20.67;75.81
63819;BME280;49970;54.976;73.248;2023-02-11T01:38:52;101925.53;;;-20.72;75.92
63819;BME280;49970;54.976;73.248;2023-02-11T01:41:24;101922.50;;;-20.78;75.65
63819;BME280;49970;54.976;73.248;2023-02-11T01:43:50;101912.56;;;-20.87;75.79
63819;BME280;49970;54.976;73.248;2023-02-11T01:48:57;101933.34;;;-20.79;75.74
63819;BME280;49970;54.976;73.248;2023-02-11T01:51:55;101934.72;;;-20.83;75.99
63819;BME280;49970;54.976;73.248;2023-02-11T01:54:27;101940.63;;;-20.82;75.66
63819;BME280;49970;54.976;73.248;2023-02-11T01:57:21;101940.25;;;-20.87;75.70
63819;BME280;49970;54.976;73.248;2023-02-11T02:00:05;101959.91;;;-20.83;75.45
63819;BME280;49970;54.976;73.248;2023-02-11T02:02:57;101962.16;;;-20.86;75.33
63819;BME280;49970;54.976;73.248;2023-02-11T02:06:04;101966.19;;;-20.88;75.33
63819;BME280;49970;54.976;73.248;2023-02-11T02:08:41;101969.59;;;-20.88;75.79
63819;BME280;49970;54.976;73.248;2023-02-11T02:11:09;101973.75;;;-20.88;75.09
63819;BME280;49970;54.976;73.248;2023-02-11T02:13:41;101976.00;;;-20.91;75.58
63819;BME280;49970;54.976;73.248;2023-02-11T02:16:12;101978.28;;;-20.94;75.60
63819;BME280;49970;54.976;73.248;2023-02-11T02:19:22;101971.75;;;-20.92;75.57
63819;BME280;49970;54.976;73.248;2023-02-11T02:22:11;101976.66;;;-20.94;75.67
63819;BME280;49970;54.976;73.248;2023-02-11T02:36:12;101993.00;;;-21.19;75.20
63819;BME280;49970;54.976;73.248;2023-02-11T02:38:54;101987.09;;;-21.20;75.34
63819;BME280;49970;54.976;73.248;2023-02-11T02:41:26;101997.41;;;-21.17;75.25
63819;BME280;49970;54.976;73.248;2023-02-11T02:43:54;102006.50;;;-21.19;75.23
63819;BME280;49970;54.976;73.248;2023-02-11T02:46:32;102004.84;;;-21.18;75.35
63819;BME280;49970;54.976;73.248;2023-02-11T02:48:59;102002.44;;;-21.17;75.57
63819;BME280;49970;54.976;73.248;2023-02-11T03:10:42;102001.97;;;-21.33;75.09
63819;BME280;49970;54.976;73.248;2023-02-11T03:14:38;101996.81;;;-21.34;75.01
63819;BME280;49970;54.976;73.248;2023-02-11T03:18:28;101992.41;;;-21.37;75.01
63819;BME280;49970;54.976;73.248;2023-02-11T03:21:42;102004.88;;;-21.38;74.89
63819;BME280;49970;54.976;73.248;2023-02-11T03:24:24;102001.81;;;-21.45;75.00
63819;BME280;49970;54.976;73.248;2023-02-11T03:26:55;101997.44;;;-21.47;75.11
63819;BME280;49970;54.976;73.248;2023-02-11T03:29:57;102004.84;;;-21.49;74.63
63819;BME280;49970;54.976;73.248;2023-02-11T03:37:42;101990.63;;;-21.48;74.90
63819;BME280;49970;54.976;73.248;2023-02-11T03:40:14;102003.72;;;-21.32;74.91
63819;BME280;49970;54.976;73.248;2023-02-11T03:42:56;102014.66;;;-21.21;74.80
63819;BME280;49970;54.976;73.248;2023-02-11T03:45:24;102020.19;;;-21.15;75.03
63819;BME280;49970;54.976;73.248;2023-02-11T03:48:07;102026.63;;;-21.08;74.86
63819;BME280;49970;54.976;73.248;2023-02-11T03:50:37;102019.56;;;-21.02;74.90
63819;BME280;49970;54.976;73.248;2023-02-11T03:53:10;102026.09;;;-20.94;74.99
63819;BME280;49970;54.976;73.248;2023-02-11T03:55:40;102021.84;;;-20.85;74.89
63819;BME280;49970;54.976;73.248;2023-02-11T03:58:08;102026.59;;;-20.78;74.99
63819;BME280;49970;54.976;73.248;2023-02-11T04:00:37;102023.94;;;-20.69;75.06
63819;BME280;49970;54.976;73.248;2023-02-11T04:03:04;102021.06;;;-20.64;75.37
63819;BME280;49970;54.976;73.248;2023-02-11T04:05:36;102030.13;;;-20.55;75.42
63819;BME280;49970;54.976;73.248;2023-02-11T04:08:03;102016.47;;;-20.47;75.64
63819;BME280;49970;54.976;73.248;2023-02-11T04:10:30;102018.59;;;-20.42;75.48
63819;BME280;49970;54.976;73.248;2023-02-11T04:12:57;102023.75;;;-20.30;75.50
63819;BME280;49970;54.976;73.248;2023-02-11T04:15:33;102008.31;;;-20.23;75.56
63819;BME280;49970;54.976;73.248;2023-02-11T04:18:00;102017.00;;;-20.19;75.75
63819;BME280;49970;54.976;73.248;2023-02-11T04:20:28;102023.31;;;-20.14;74.97
63819;BME280;49970;54.976;73.248;2023-02-11T04:22:54;102008.03;;;-20.05;75.99
63819;BME280;49970;54.976;73.248;2023-02-11T04:25:25;102011.28;;;-19.96;75.26
63819;BME280;49970;54.976;73.248;2023-02-11T04:28:02;102004.16;;;-19.90;75.19
63819;BME280;49970;54.976;73.248;2023-02-11T04:30:32;102008.47;;;-19.89;75.91
63819;BME280;49970;54.976;73.248;2023-02-11T04:33:09;102009.97;;;-19.81;75.81
63819;BME280;49970;54.976;73.248;2023-02-11T04:35:35;102012.31;;;-19.72;75.72
63819;BME280;49970;54.976;73.248;2023-02-11T04:38:01;102010.25;;;-19.66;75.45
63819;BME280;49970;54.976;73.248;2023-02-11T04:40:27;102015.53;;;-19.63;75.01
63819;BME280;49970;54.976;73.248;2023-02-11T04:42:54;102025.16;;;-19.57;75.91
63819;BME280;49970;54.976;73.248;2023-02-11T04:45:20;102016.19;;;-19.54;75.28
63819;BME280;49970;54.976;73.248;2023-02-11T04:47:57;102021.69;;;-19.48;75.16
63819;BME280;49970;54.976;73.248;2023-02-11T04:50:23;102022.28;;;-19.40;75.24
63819;BME280;49970;54.976;73.248;2023-02-11T04:52:59;102027.28;;;-19.30;76.29
63819;BME280;49970;54.976;73.248;2023-02-11T04:55:30;102025.13;;;-19.25;75.53
63819;BME280;49970;54.976;73.248;2023-02-11T04:57:57;102027.88;;;-19.22;76.30
63819;BME280;49970;54.976;73.248;2023-02-11T05:00:23;102026.34;;;-19.20;76.22
63819;BME280;49970;54.976;73.248;2023-02-11T05:02:53;102030.63;;;-19.19;76.44
63819;BME280;49970;54.976;73.248;2023-02-11T05:05:19;102020.06;;;-19.25;74.91
63819;BME280;49970;54.976;73.248;2023-02-11T05:07:46;102028.88;;;-19.20;74.92
63819;BME280;49970;54.976;73.248;2023-02-11T05:10:23;102024.59;;;-19.21;75.81
63819;BME280;49970;54.976;73.248;2023-02-11T05:12:49;102027.09;;;-19.21;75.64
63819;BME280;49970;54.976;73.248;2023-02-11T05:15:15;102021.28;;;-19.20;75.83
63819;BME280;49970;54.976;73.248;2023-02-11T05:17:52;102025.81;;;-19.16;75.87
63819;BME280;49970;54.976;73.248;2023-02-11T05:20:18;102025.28;;;-19.12;74.63
63819;BME280;49970;54.976;73.248;2023-02-11T05:22:49;102021.19;;;-19.10;75.55
63819;BME280;49970;54.976;73.248;2023-02-11T05:25:16;102018.28;;;-19.04;74.60
63819;BME280;49970;54.976;73.248;2023-02-11T05:27:43;102023.03;;;-18.97;74.71
63819;BME280;49970;54.976;73.248;2023-02-11T05:30:10;102015.91;;;-18.91;74.93
63819;BME280;49970;54.976;73.248;2023-02-11T05:32:36;102020.75;;;-18.82;74.93
63819;BME280;49970;54.976;73.248;2023-02-11T05:35:02;102027.16;;;-18.76;75.79
63819;BME280;49970;54.976;73.248;2023-02-11T05:37:29;102023.41;;;-18.69;75.11
63819;BME280;49970;54.976;73.248;2023-02-11T05:39:55;102028.34;;;-18.59;74.70
63819;BME280;49970;54.976;73.248;2023-02-11T05:42:21;102025.91;;;-18.57;76.33
63819;BME280;49970;54.976;73.248;2023-02-11T05:44:47;102036.25;;;-18.54;76.06
63819;BME280;49970;54.976;73.248;2023-02-11T05:47:24;102032.66;;;-18.46;76.47
63819;BME280;49970;54.976;73.248;2023-02-11T05:49:50;102032.31;;;-18.39;74.63
63819;BME280;49970;54.976;73.248;2023-02-11T05:52:19;102028.59;;;-18.32;76.36
63819;BME280;49970;54.976;73.248;2023-02-11T05:54:55;102027.47;;;-18.36;75.87
63819;BME280;49970;54.976;73.248;2023-02-11T05:57:21;102023.44;;;-18.34;76.12
63819;BME280;49970;54.976;73.248;2023-02-11T05:59:53;102030.47;;;-18.30;75.00
63819;BME280;49970;54.976;73.248;2023-02-11T06:02:29;102025.94;;;-18.22;74.65
63819;BME280;49970;54.976;73.248;2023-02-11T06:04:55;102029.47;;;-18.20;75.88
63819;BME280;49970;54.976;73.248;2023-02-11T06:07:21;102012.53;;;-18.21;75.66
63819;BME280;49970;54.976;73.248;2023-02-11T06:09:48;102024.19;;;-18.12;75.74
63819;BME280;49970;54.976;73.248;2023-02-11T06:12:14;102029.66;;;-18.05;76.09
63819;BME280;49970;54.976;73.248;2023-02-11T06:14:50;102037.47;;;-18.02;75.88
63819;BME280;49970;54.976;73.248;2023-02-11T06:17:16;102039.69;;;-17.95;75.74
63819;BME280;49970;54.976;73.248;2023-02-11T06:19:43;102039.78;;;-17.94;76.18
63819;BME280;49970;54.976;73.248;2023-02-11T06:22:10;102029.66;;;-17.94;74.92
63819;BME280;49970;54.976;73.248;2023-02-11T06:24:41;102035.50;;;-17.83;75.31
63819;BME280;49970;54.976;73.248;2023-02-11T06:27:08;102044.56;;;-17.73;74.81
63819;BME280;49970;54.976;73.248;2023-02-11T06:29:39;102039.94;;;-17.67;74.94
63819;BME280;49970;54.976;73.248;2023-02-11T06:32:05;102043.78;;;-17.61;75.07
63819;BME280;49970;54.976;73.248;2023-02-11T06:34:32;102033.97;;;-17.56;76.19
63819;BME280;49970;54.976;73.248;2023-02-11T06:36:58;102036.16;;;-17.49;75.32
63819;BME280;49970;54.976;73.248;2023-02-11T06:39:24;102035.50;;;-17.46;75.15
63819;BME280;49970;54.976;73.248;2023-02-11T06:41:50;102034.16;;;-17.41;76.01
63819;BME280;49970;54.976;73.248;2023-02-11T06:44:17;102039.44;;;-17.38;74.94
63819;BME280;49970;54.976;73.248;2023-02-11T06:46:44;102045.91;;;-17.30;75.12
63819;BME280;49970;54.976;73.248;2023-02-11T06:49:10;102054.69;;;-17.25;75.82
63819;BME280;49970;54.976;73.248;2023-02-11T06:51:36;102056.97;;;-17.16;76.13
63819;BME280;49970;54.976;73.248;2023-02-11T06:54:10;102047.06;;;-17.13;76.23
63819;BME280;49970;54.976;73.248;2023-02-11T06:56:39;102053.31;;;-17.08;74.90
63819;BME280;49970;54.976;73.248;2023-02-11T06:59:05;102049.53;;;-17.01;75.22
63819;BME280;49970;54.976;73.248;2023-02-11T07:01:31;102051.50;;;-16.97;75.33
63819;BME280;49970;54.976;73.248;2023-02-11T07:03:58;102056.28;;;-16.89;75.43
63819;BME280;49970;54.976;73.248;2023-02-11T07:06:25;102053.31;;;-16.83;75.92
63819;BME280;49970;54.976;73.248;2023-02-11T07:08:53;102056.81;;;-16.81;75.25
63819;BME280;49970;54.976;73.248;2023-02-11T07:11:22;102055.28;;;-16.79;75.32
63819;BME280;49970;54.976;73.248;2023-02-11T07:13:50;102054.78;;;-16.73;75.67
63819;BME280;49970;54.976;73.248;2023-02-11T07:16:26;102056.25;;;-16.64;75.59
63819;BME280;49970;54.976;73.248;2023-02-11T07:18:52;102041.94;;;-16.63;76.22
63819;BME280;49970;54.976;73.248;2023-02-11T07:21:20;102049.84;;;-16.59;75.86
63819;BME280;49970;54.976;73.248;2023-02-11T07:23:47;102037.75;;;-16.63;75.64
63819;BME280;49970;54.976;73.248;2023-02-11T07:26:17;102055.31;;;-16.52;75.51
63819;BME280;49970;54.976;73.248;2023-02-11T07:28:44;102043.97;;;-16.58;75.99
63819;BME280;49970;54.976;73.248;2023-02-11T07:31:24;102053.06;;;-16.48;75.93
63819;BME280;49970;54.976;73.248;2023-02-11T07:33:53;102051.53;;;-16.46;75.65
63819;BME280;49970;54.976;73.248;2023-02-11T07:36:20;102050.94;;;-16.42;75.70
63819;BME280;49970;54.976;73.248;2023-02-11T07:38:47;102048.72;;;-16.37;75.52
63819;BME280;49970;54.976;73.248;2023-02-11T07:41:16;102057.41;;;-16.34;75.58
63819;BME280;49970;54.976;73.248;2023-02-11T07:43:44;102042.84;;;-16.36;75.63
63819;BME280;49970;54.976;73.248;2023-02-11T07:46:16;102049.09;;;-16.31;75.72
63819;BME280;49970;54.976;73.248;2023-02-11T07:48:44;102048.31;;;-16.30;75.55
63819;BME280;49970;54.976;73.248;2023-02-11T07:51:15;102050.97;;;-16.28;75.63
63819;BME280;49970;54.976;73.248;2023-02-11T07:53:43;102055.53;;;-16.23;75.71
63819;BME280;49970;54.976;73.248;2023-02-11T07:56:10;102054.66;;;-16.23;75.58
63819;BME280;49970;54.976;73.248;2023-02-11T07:58:36;102053.22;;;-16.20;75.38
63819;BME280;49970;54.976;73.248;2023-02-11T08:01:18;102032.69;;;-16.23;75.58
63819;BME280;49970;54.976;73.248;2023-02-11T08:03:56;102042.75;;;-16.11;75.67
63819;BME280;49970;54.976;73.248;2023-02-11T08:06:25;102045.97;;;-16.14;75.55
63819;BME280;49970;54.976;73.248;2023-02-11T08:08:52;102054.78;;;-16.09;75.39
63819;BME280;49970;54.976;73.248;2023-02-11T08:11:26;102051.66;;;-16.04;75.47
63819;BME280;49970;54.976;73.248;2023-02-11T08:13:54;102047.97;;;-15.96;75.58
63819;BME280;49970;54.976;73.248;2023-02-11T08:16:22;102053.31;;;-15.92;75.27
63819;BME280;49970;54.976;73.248;2023-02-11T08:18:50;102060.34;;;-15.88;75.62
63819;BME280;49970;54.976;73.248;2023-02-11T08:21:20;102061.38;;;-15.84;75.64
63819;BME280;49970;54.976;73.248;2023-02-11T08:23:52;102042.38;;;-15.91;75.47
63819;BME280;49970;54.976;73.248;2023-02-11T08:26:20;102059.06;;;-15.81;75.45
63819;BME280;49970;54.976;73.248;2023-02-11T08:28:53;102052.31;;;-15.80;75.05
63819;BME280;49970;54.976;73.248;2023-02-11T08:31:34;102051.66;;;-15.78;75.42
63819;BME280;49970;54.976;73.248;2023-02-11T08:34:30;102050.78;;;-15.78;75.37
63819;BME280;49970;54.976;73.248;2023-02-11T08:38:06;102060.41;;;-15.73;75.55
63819;BME280;49970;54.976;73.248;2023-02-11T08:40:33;102046.94;;;-15.72;75.40
63819;BME280;49970;54.976;73.248;2023-02-11T08:43:00;102047.94;;;-15.70;75.16
63819;BME280;49970;54.976;73.248;2023-02-11T08:45:26;102054.88;;;-15.67;75.56
63819;BME280;49970;54.976;73.248;2023-02-11T08:48:01;102052.31;;;-15.67;75.15
63819;BME280;49970;54.976;73.248;2023-02-11T08:50:27;102056.69;;;-15.65;75.20
63819;BME280;49970;54.976;73.248;2023-02-11T08:52:53;102057.06;;;-15.59;75.61
63819;BME280;49970;54.976;73.248;2023-02-11T08:55:19;102053.16;;;-15.53;75.73
63819;BME280;49970;54.976;73.248;2023-02-11T08:57:47;102051.75;;;-15.48;75.19
63819;BME280;49970;54.976;73.248;2023-02-11T09:00:23;102053.34;;;-15.50;75.70
63819;BME280;49970;54.976;73.248;2023-02-11T09:02:49;102052.63;;;-15.48;75.52
63819;BME280;49970;54.976;73.248;2023-02-11T09:05:15;102050.22;;;-15.46;75.23
63819;BME280;49970;54.976;73.248;2023-02-11T09:07:42;102050.09;;;-15.48;74.98
63819;BME280;49970;54.976;73.248;2023-02-11T09:10:12;102045.13;;;-15.46;75.73
63819;BME280;49970;54.976;73.248;2023-02-11T09:12:38;102048.44;;;-15.47;75.25
63819;BME280;49970;54.976;73.248;2023-02-11T09:15:05;102049.22;;;-15.48;75.10
63819;BME280;49970;54.976;73.248;2023-02-11T09:17:31;102048.16;;;-15.52;75.21
63819;BME280;49970;54.976;73.248;2023-02-11T09:19:57;102046.47;;;-15.51;75.56
63819;BME280;49970;54.976;73.248;2023-02-11T09:22:23;102053.34;;;-15.50;75.63
63819;BME280;49970;54.976;73.248;2023-02-11T09:24:50;102049.22;;;-15.48;75.91
63819;BME280;49970;54.976;73.248;2023-02-11T09:27:16;102045.88;;;-15.47;76.04
63819;BME280;49970;54.976;73.248;2023-02-11T09:29:53;102039.72;;;-15.51;75.56
63819;BME280;49970;54.976;73.248;2023-02-11T09:32:19;102039.25;;;-15.45;76.05
63819;BME280;49970;54.976;73.248;2023-02-11T09:34:45;102043.53;;;-15.44;75.80
63819;BME280;49970;54.976;73.248;2023-02-11T09:37:12;102044.41;;;-15.44;75.83
63819;BME280;49970;54.976;73.248;2023-02-11T09:39:38;102033.47;;;-15.43;75.93
63819;BME280;49970;54.976;73.248;2023-02-11T09:44:33;102032.88;;;-15.39;75.28
63819;BME280;49970;54.976;73.248;2023-02-11T09:51:38;102042.72;;;-15.30;75.46
63819;BME280;49970;54.976;73.248;2023-02-11T09:55:35;102035.28;;;-15.27;76.10
63819;BME280;49970;54.976;73.248;2023-02-11T09:59:50;102033.81;;;-15.23;75.85
63819;BME280;49970;54.976;73.248;2023-02-11T10:03:47;102032.16;;;-15.23;75.68
63819;BME280;49970;54.976;73.248;2023-02-11T10:06:28;102032.34;;;-15.20;75.02
63819;BME280;49970;54.976;73.248;2023-02-11T10:17:20;102017.38;;;-15.15;75.32
63819;BME280;49970;54.976;73.248;2023-02-11T10:20:10;102017.38;;;-15.15;75.23
63819;BME280;49970;54.976;73.248;2023-02-11T10:22:48;102013.84;;;-15.17;75.76
63819;BME280;49970;54.976;73.248;2023-02-11T10:25:32;102018.50;;;-15.10;75.08
63819;BME280;49970;54.976;73.248;2023-02-11T10:28:00;102021.16;;;-15.09;75.55
63819;BME280;49970;54.976;73.248;2023-02-11T10:30:39;102016.16;;;-15.07;76.08
63819;BME280;49970;54.976;73.248;2023-02-11T10:33:24;102011.06;;;-15.07;75.37
63819;BME280;49970;54.976;73.248;2023-02-11T10:36:03;102016.16;;;-15.07;75.09
63819;BME280;49970;54.976;73.248;2023-02-11T10:38:35;102014.41;;;-15.08;75.06
63819;BME280;49970;54.976;73.248;2023-02-11T10:41:51;102017.03;;;-15.07;76.05
63819;BME280;49970;54.976;73.248;2023-02-11T10:43:59;102014.13;;;-15.13;75.60
63819;BME280;49970;54.976;73.248;2023-02-11T10:46:31;102017.81;;;-15.08;75.68
63819;BME280;49970;54.976;73.248;2023-02-11T10:48:58;101966.31;;;-15.33;75.33
63819;BME280;49970;54.976;73.248;2023-02-11T10:51:31;102014.28;;;-15.10;75.19
63819;BME280;49970;54.976;73.248;2023-02-11T10:56:57;102015.88;;;-15.12;75.99
63819;BME280;49970;54.976;73.248;2023-02-11T10:59:36;102008.34;;;-15.10;75.17
63819;BME280;49970;54.976;73.248;2023-02-11T11:02:21;102008.25;;;-15.12;75.05
63819;BME280;49970;54.976;73.248;2023-02-11T11:04:48;102008.06;;;-15.15;76.10
63819;BME280;49970;54.976;73.248;2023-02-11T11:07:18;102008.00;;;-15.16;75.42
63819;BME280;49970;54.976;73.248;2023-02-11T11:10:06;102011.41;;;-15.16;75.02
63819;BME280;49970;54.976;73.248;2023-02-11T11:15:19;102017.16;;;-15.18;75.17
63819;BME280;49970;54.976;73.248;2023-02-11T11:18:06;102012.53;;;-15.25;75.51
63819;BME280;49970;54.976;73.248;2023-02-11T11:20:34;102021.19;;;-15.22;75.27
63819;BME280;49970;54.976;73.248;2023-02-11T11:23:19;102015.06;;;-15.25;75.60
63819;BME280;49970;54.976;73.248;2023-02-11T11:26:05;102016.69;;;-15.26;76.21
63819;BME280;49970;54.976;73.248;2023-02-11T11:28:50;102021.72;;;-15.27;75.50
63819;BME280;49970;54.976;73.248;2023-02-11T11:31:21;102021.63;;;-15.29;75.42
63819;BME280;49970;54.976;73.248;2023-02-11T11:33:50;102012.81;;;-15.34;75.30
63819;BME280;49970;54.976;73.248;2023-02-11T11:36:38;102017.03;;;-15.35;75.89
63819;BME280;49970;54.976;73.248;2023-02-11T11:39:21;102019.75;;;-15.32;76.21
63819;BME280;49970;54.976;73.248;2023-02-11T11:41:49;102035.69;;;-15.34;76.15
63819;BME280;49970;54.976;73.248;2023-02-11T11:44:35;102031.13;;;-15.40;75.84
63819;BME280;49970;54.976;73.248;2023-02-11T11:55:17;102039.72;;;-15.51;75.56
63819;BME280;49970;54.976;73.248;2023-02-11T11:57:54;102039.28;;;-15.59;75.13
63819;BME280;49970;54.976;73.248;2023-02-11T12:00:50;102037.78;;;-15.70;75.52
63819;BME280;49970;54.976;73.248;2023-02-11T12:06:59;102047.34;;;-15.79;74.93
63819;BME280;49970;54.976;73.248;2023-02-11T12:12:43;102040.91;;;-15.87;75.36
63819;BME280;49970;54.976;73.248;2023-02-11T12:24:32;102030.56;;;-16.17;75.04
63819;BME280;49970;54.976;73.248;2023-02-11T12:32:25;102040.50;;;-16.33;74.83
63819;BME280;49970;54.976;73.248;2023-02-11T12:35:52;102036.91;;;-16.37;74.98
63819;BME280;49970;54.976;73.248;2023-02-11T12:38:46;102034.06;;;-16.41;74.29
63819;BME280;49970;54.976;73.248;2023-02-11T12:41:45;102041.25;;;-16.47;74.73
63819;BME280;49970;54.976;73.248;2023-02-11T12:50:56;102048.97;;;-16.59;74.58
63819;BME280;49970;54.976;73.248;2023-02-11T12:53:36;102058.78;;;-16.64;74.45
63819;BME280;49970;54.976;73.248;2023-02-11T12:58:54;102051.28;;;-16.75;74.17
63819;BME280;49970;54.976;73.248;2023-02-11T13:01:34;102049.50;;;-16.76;74.26
63819;BME280;49970;54.976;73.248;2023-02-11T13:04:28;102069.31;;;-16.71;74.90
63819;BME280;49970;54.976;73.248;2023-02-11T13:07:12;102071.66;;;-16.74;74.22
63819;BME280;49970;54.976;73.248;2023-02-11T13:09:58;102057.69;;;-16.80;74.96
63819;BME280;49970;54.976;73.248;2023-02-11T13:12:28;102052.88;;;-16.89;74.80
63819;BME280;49970;54.976;73.248;2023-02-11T13:15:14;102057.69;;;-16.80;74.51
63819;BME280;49970;54.976;73.248;2023-02-11T13:17:50;102063.53;;;-16.81;75.17
63819;BME280;49970;54.976;73.248;2023-02-11T13:23:21;102062.34;;;-16.87;75.06
63819;BME280;49970;54.976;73.248;2023-02-11T13:25:58;102065.56;;;-16.89;74.30
63819;BME280;49970;54.976;73.248;2023-02-11T13:28:47;102065.38;;;-16.92;74.69
63819;BME280;49970;54.976;73.248;2023-02-11T13:31:26;102061.84;;;-16.94;75.08
63819;BME280;49970;54.976;73.248;2023-02-11T13:33:54;102073.53;;;-16.96;75.18
63819;BME280;49970;54.976;73.248;2023-02-11T13:36:23;102074.97;;;-17.00;74.35
63819;BME280;49970;54.976;73.248;2023-02-11T13:38:56;102072.00;;;-17.06;74.38
63819;BME280;49970;54.976;73.248;2023-02-11T13:41:30;102079.31;;;-17.11;74.45
63819;BME280;49970;54.976;73.248;2023-02-11T13:44:21;102073.16;;;-17.14;74.64
63819;BME280;49970;54.976;73.248;2023-02-11T13:47:04;102068.78;;;-17.17;74.29
63819;BME280;49970;54.976;73.248;2023-02-11T13:49:48;102063.69;;;-17.17;74.35
63819;BME280;49970;54.976;73.248;2023-02-11T13:52:21;102070.53;;;-17.16;75.14
63819;BME280;49970;54.976;73.248;2023-02-11T13:54:50;102062.50;;;-17.22;74.48
63819;BME280;49970;54.976;73.248;2023-02-11T13:59:49;102063.38;;;-17.21;75.32
63819;BME280;49970;54.976;73.248;2023-02-11T14:02:32;102074.41;;;-17.21;75.28
63819;BME280;49970;54.976;73.248;2023-02-11T14:05:30;102073.22;;;-17.26;75.34
63819;BME280;49970;54.976;73.248;2023-02-11T14:08:18;102056.59;;;-17.34;75.33
63819;BME280;49970;54.976;73.248;2023-02-11T14:16:19;102052.66;;;-17.42;75.54
63819;BME280;49970;54.976;73.248;2023-02-11T14:21:33;102065.50;;;-17.39;75.34
63819;BME280;49970;54.976;73.248;2023-02-11T14:32:00;102076.91;;;-17.57;75.25
63819;BME280;49970;54.976;73.248;2023-02-11T14:35:02;102082.63;;;-17.60;74.45
63819;BME280;49970;54.976;73.248;2023-02-11T14:37:36;102072.06;;;-17.66;75.28
63819;BME280;49970;54.976;73.248;2023-02-11T14:40:38;102077.69;;;-17.70;74.73
63819;BME280;49970;54.976;73.248;2023-02-11T14:43:12;102074.75;;;-17.76;75.57
63819;BME280;49970;54.976;73.248;2023-02-11T14:45:55;102069.03;;;-17.74;75.51
63819;BME280;49970;54.976;73.248;2023-02-11T14:48:29;102083.25;;;-17.76;75.29
63819;BME280;49970;54.976;73.248;2023-02-11T14:51:19;102081.81;;;-17.84;75.63
63819;BME280;49970;54.976;73.248;2023-02-11T14:54:18;102078.97;;;-17.89;74.94
63819;BME280;49970;54.976;73.248;2023-02-11T14:57:17;102076.06;;;-17.93;75.36
63819;BME280;49970;54.976;73.248;2023-02-11T15:00:03;102085.88;;;-17.98;74.74
63819;BME280;49970;54.976;73.248;2023-02-11T15:02:36;102075.41;;;-18.02;75.93
63819;BME280;49970;54.976;73.248;2023-02-11T15:05:18;102092.16;;;-18.04;75.85
63819;BME280;49970;54.976;73.248;2023-02-11T15:07:51;102087.41;;;-18.12;75.52
63819;BME280;49970;54.976;73.248;2023-02-11T15:10:32;102087.41;;;-18.12;75.22